sensor_id;sensor_type;location;lat;lon;timestamp;P1;durP1;ratioP1;P2;durP2;ratioP2
57561;SDS011;43397;51.530;5.974;2023-05-07T00:02:02;19.35;;;16.20;;
57561;SDS011;43397;51.530;5.974;2023-05-07T00:04:29;20.55;;;16.75;;
57561;SDS011;43397;51.530;5.974;2023-05-07T00:06:55;22.27;;;18.10;;
57561;SDS011;43397;51.530;5.974;2023-05-07T00:09:20;22.17;;;17.25;;
57561;SDS011;43397;51.530;5.974;2023-05-07T00:11:46;21.75;;;18.40;;
57561;SDS011;43397;51.530;5.974;2023-05-07T00:14:12;22.77;;;18.02;;
57561;SDS011;43397;51.530;5.974;2023-05-07T00:16:37;21.15;;;17.45;;
57561;SDS011;43397;51.530;5.974;2023-05-07T00:19:03;24.85;;;18.92;;
57561;SDS011;43397;51.530;5.974;2023-05-07T00:21:30;21.38;;;19.02;;
57561;SDS011;43397;51.530;5.974;2023-05-07T00:23:56;22.88;;;19.67;;
57561;SDS011;43397;51.530;5.974;2023-05-07T00:26:21;25.00;;;19.95;;
57561;SDS011;43397;51.530;5.974;2023-05-07T00:28:47;24.20;;;19.15;;
57561;SDS011;43397;51.530;5.974;2023-05-07T00:31:13;23.00;;;18.80;;
57561;SDS011;43397;51.530;5.974;2023-05-07T00:33:38;22.10;;;18.85;;
57561;SDS011;43397;51.530;5.974;2023-05-07T00:36:04;24.23;;;18.80;;
57561;SDS011;43397;51.530;5.974;2023-05-07T00:38:31;21.30;;;19.02;;
57561;SDS011;43397;51.530;5.974;2023-05-07T00:40:57;26.33;;;20.95;;
57561;SDS011;43397;51.530;5.974;2023-05-07T00:43:23;23.75;;;21.05;;
57561;SDS011;43397;51.530;5.974;2023-05-07T00:45:48;26.17;;;21.63;;
57561;SDS011;43397;51.530;5.974;2023-05-07T00:48:14;25.52;;;22.73;;
57561;SDS011;43397;51.530;5.974;2023-05-07T00:50:41;27.33;;;22.05;;
57561;SDS011;43397;51.530;5.974;2023-05-07T00:53:07;27.02;;;22.17;;
57561;SDS011;43397;51.530;5.974;2023-05-07T00:55:34;24.45;;;21.25;;
57561;SDS011;43397;51.530;5.974;2023-05-07T00:58:00;27.00;;;22.50;;
57561;SDS011;43397;51.530;5.974;2023-05-07T01:00:26;25.65;;;20.45;;
57561;SDS011;43397;51.530;5.974;2023-05-07T01:02:52;26.13;;;22.60;;
57561;SDS011;43397;51.530;5.974;2023-05-07T01:05:18;28.48;;;21.58;;
57561;SDS011;43397;51.530;5.974;2023-05-07T01:07:45;23.60;;;20.67;;
57561;SDS011;43397;51.530;5.974;2023-05-07T01:10:12;24.60;;;20.27;;
57561;SDS011;43397;51.530;5.974;2023-05-07T01:12:40;24.90;;;22.40;;
57561;SDS011;43397;51.530;5.974;2023-05-07T01:15:08;25.35;;;21.77;;
57561;SDS011;43397;51.530;5.974;2023-05-07T01:17:35;26.48;;;21.52;;
57561;SDS011;43397;51.530;5.974;2023-05-07T01:20:00;24.98;;;22.05;;
57561;SDS011;43397;51.530;5.974;2023-05-07T01:22:30;26.33;;;21.85;;
57561;SDS011;43397;51.530;5.974;2023-05-07T01:24:56;29.20;;;23.73;;
57561;SDS011;43397;51.530;5.974;2023-05-07T01:27:22;28.17;;;22.85;;
57561;SDS011;43397;51.530;5.974;2023-05-07T01:29:48;25.02;;;22.33;;
57561;SDS011;43397;51.530;5.974;2023-05-07T01:32:13;25.60;;;22.90;;
57561;SDS011;43397;51.530;5.974;2023-05-07T01:34:41;24.52;;;21.60;;
57561;SDS011;43397;51.530;5.974;2023-05-07T01:37:09;28.17;;;24.05;;
57561;SDS011;43397;51.530;5.974;2023-05-07T01:39:37;29.63;;;25.52;;
57561;SDS011;43397;51.530;5.974;2023-05-07T01:42:05;28.90;;;24.75;;
57561;SDS011;43397;51.530;5.974;2023-05-07T01:44:30;26.05;;;23.35;;
57561;SDS011;43397;51.530;5.974;2023-05-07T01:46:56;25.60;;;22.23;;
57561;SDS011;43397;51.530;5.974;2023-05-07T01:49:22;28.50;;;23.20;;
57561;SDS011;43397;51.530;5.974;2023-05-07T01:51:48;28.67;;;23.85;;
57561;SDS011;43397;51.530;5.974;2023-05-07T01:54:14;28.15;;;24.33;;
57561;SDS011;43397;51.530;5.974;2023-05-07T01:56:41;31.33;;;26.73;;
57561;SDS011;43397;51.530;5.974;2023-05-07T01:59:07;31.38;;;25.95;;
57561;SDS011;43397;51.530;5.974;2023-05-07T02:01:32;32.30;;;28.15;;
57561;SDS011;43397;51.530;5.974;2023-05-07T02:03:58;33.05;;;28.65;;
57561;SDS011;43397;51.530;5.974;2023-05-07T02:06:24;31.80;;;28.35;;
57561;SDS011;43397;51.530;5.974;2023-05-07T02:08:49;31.48;;;27.05;;
57561;SDS011;43397;51.530;5.974;2023-05-07T02:11:15;32.03;;;28.58;;
57561;SDS011;43397;51.530;5.974;2023-05-07T02:13:42;31.77;;;28.05;;
57561;SDS011;43397;51.530;5.974;2023-05-07T02:16:08;31.42;;;28.08;;
57561;SDS011;43397;51.530;5.974;2023-05-07T02:18:34;32.72;;;29.17;;
57561;SDS011;43397;51.530;5.974;2023-05-07T02:20:59;37.78;;;30.20;;
57561;SDS011;43397;51.530;5.974;2023-05-07T02:23:25;34.40;;;29.60;;
57561;SDS011;43397;51.530;5.974;2023-05-07T02:25:51;35.65;;;30.23;;
57561;SDS011;43397;51.530;5.974;2023-05-07T02:28:16;36.40;;;30.05;;
57561;SDS011;43397;51.530;5.974;2023-05-07T02:30:43;40.03;;;30.60;;
57561;SDS011;43397;51.530;5.974;2023-05-07T02:33:09;37.45;;;30.33;;
57561;SDS011;43397;51.530;5.974;2023-05-07T02:35:34;34.92;;;31.10;;
57561;SDS011;43397;51.530;5.974;2023-05-07T02:38:00;36.95;;;31.83;;
57561;SDS011;43397;51.530;5.974;2023-05-07T02:40:26;40.70;;;33.53;;
57561;SDS011;43397;51.530;5.974;2023-05-07T02:42:52;37.75;;;32.58;;
57561;SDS011;43397;51.530;5.974;2023-05-07T02:45:17;37.03;;;31.83;;
57561;SDS011;43397;51.530;5.974;2023-05-07T02:47:44;39.00;;;33.42;;
57561;SDS011;43397;51.530;5.974;2023-05-07T02:50:10;40.47;;;33.42;;
57561;SDS011;43397;51.530;5.974;2023-05-07T02:52:36;41.17;;;34.33;;
57561;SDS011;43397;51.530;5.974;2023-05-07T02:55:01;45.22;;;36.05;;
57561;SDS011;43397;51.530;5.974;2023-05-07T02:57:27;43.03;;;34.15;;
57561;SDS011;43397;51.530;5.974;2023-05-07T02:59:53;44.03;;;35.63;;
57561;SDS011;43397;51.530;5.974;2023-05-07T03:02:18;44.40;;;34.38;;
57561;SDS011;43397;51.530;5.974;2023-05-07T03:04:45;42.05;;;35.50;;
57561;SDS011;43397;51.530;5.974;2023-05-07T03:07:11;45.67;;;37.10;;
57561;SDS011;43397;51.530;5.974;2023-05-07T03:09:37;42.75;;;35.60;;
57561;SDS011;43397;51.530;5.974;2023-05-07T03:12:03;43.38;;;38.17;;
57561;SDS011;43397;51.530;5.974;2023-05-07T03:14:28;48.42;;;39.08;;
57561;SDS011;43397;51.530;5.974;2023-05-07T03:16:54;49.17;;;39.00;;
57561;SDS011;43397;51.530;5.974;2023-05-07T03:19:20;50.47;;;40.63;;
57561;SDS011;43397;51.530;5.974;2023-05-07T03:21:47;50.22;;;39.85;;
57561;SDS011;43397;51.530;5.974;2023-05-07T03:24:12;51.80;;;41.17;;
57561;SDS011;43397;51.530;5.974;2023-05-07T03:26:38;50.70;;;40.13;;
57561;SDS011;43397;51.530;5.974;2023-05-07T03:29:04;52.67;;;41.75;;
57561;SDS011;43397;51.530;5.974;2023-05-07T03:31:29;56.83;;;42.58;;
57561;SDS011;43397;51.530;5.974;2023-05-07T03:33:56;56.47;;;42.58;;
57561;SDS011;43397;51.530;5.974;2023-05-07T03:36:22;58.28;;;44.97;;
57561;SDS011;43397;51.530;5.974;2023-05-07T03:38:50;60.05;;;42.45;;
57561;SDS011;43397;51.530;5.974;2023-05-07T03:41:15;54.55;;;42.50;;
57561;SDS011;43397;51.530;5.974;2023-05-07T03:43:41;55.08;;;43.17;;
57561;SDS011;43397;51.530;5.974;2023-05-07T03:46:07;56.17;;;42.28;;
57561;SDS011;43397;51.530;5.974;2023-05-07T03:48:32;56.95;;;43.42;;
57561;SDS011;43397;51.530;5.974;2023-05-07T03:50:58;54.95;;;42.45;;
57561;SDS011;43397;51.530;5.974;2023-05-07T03:53:24;52.83;;;42.10;;
57561;SDS011;43397;51.530;5.974;2023-05-07T03:55:51;51.83;;;43.22;;
57561;SDS011;43397;51.530;5.974;2023-05-07T03:58:17;58.22;;;42.63;;
57561;SDS011;43397;51.530;5.974;2023-05-07T04:00:42;57.17;;;42.95;;
57561;SDS011;43397;51.530;5.974;2023-05-07T04:03:08;59.28;;;44.35;;
57561;SDS011;43397;51.530;5.974;2023-05-07T04:05:34;54.13;;;44.58;;
57561;SDS011;43397;51.530;5.974;2023-05-07T04:08:00;59.40;;;44.17;;
57561;SDS011;43397;51.530;5.974;2023-05-07T04:10:26;55.95;;;43.70;;
57561;SDS011;43397;51.530;5.974;2023-05-07T04:12:53;60.58;;;42.92;;
57561;SDS011;43397;51.530;5.974;2023-05-07T04:15:19;54.30;;;44.75;;
57561;SDS011;43397;51.530;5.974;2023-05-07T04:17:45;56.92;;;44.05;;
57561;SDS011;43397;51.530;5.974;2023-05-07T04:20:13;56.95;;;45.03;;
57561;SDS011;43397;51.530;5.974;2023-05-07T04:22:41;59.92;;;46.95;;
57561;SDS011;43397;51.530;5.974;2023-05-07T04:25:07;54.50;;;44.53;;
57561;SDS011;43397;51.530;5.974;2023-05-07T04:27:34;56.90;;;44.78;;
57561;SDS011;43397;51.530;5.974;2023-05-07T04:30:01;62.35;;;47.17;;
57561;SDS011;43397;51.530;5.974;2023-05-07T04:32:27;60.63;;;46.90;;
57561;SDS011;43397;51.530;5.974;2023-05-07T04:34:52;60.95;;;46.25;;
57561;SDS011;43397;51.530;5.974;2023-05-07T04:37:18;61.20;;;46.45;;
57561;SDS011;43397;51.530;5.974;2023-05-07T04:39:43;57.83;;;44.60;;
57561;SDS011;43397;51.530;5.974;2023-05-07T04:42:09;62.60;;;46.80;;
57561;SDS011;43397;51.530;5.974;2023-05-07T04:44:39;60.80;;;46.92;;
57561;SDS011;43397;51.530;5.974;2023-05-07T04:47:06;61.22;;;46.55;;
57561;SDS011;43397;51.530;5.974;2023-05-07T04:49:32;61.42;;;46.78;;
57561;SDS011;43397;51.530;5.974;2023-05-07T04:51:58;61.25;;;46.53;;
57561;SDS011;43397;51.530;5.974;2023-05-07T04:54:23;66.25;;;47.38;;
57561;SDS011;43397;51.530;5.974;2023-05-07T04:56:49;58.40;;;46.78;;
57561;SDS011;43397;51.530;5.974;2023-05-07T04:59:15;60.22;;;48.45;;
57561;SDS011;43397;51.530;5.974;2023-05-07T05:01:40;57.60;;;46.20;;
57561;SDS011;43397;51.530;5.974;2023-05-07T05:04:07;57.50;;;45.00;;
57561;SDS011;43397;51.530;5.974;2023-05-07T05:06:33;55.13;;;44.15;;
57561;SDS011;43397;51.530;5.974;2023-05-07T05:08:59;55.33;;;42.78;;
57561;SDS011;43397;51.530;5.974;2023-05-07T05:11:24;51.95;;;42.95;;
57561;SDS011;43397;51.530;5.974;2023-05-07T05:13:50;53.10;;;42.38;;
57561;SDS011;43397;51.530;5.974;2023-05-07T05:16:16;57.65;;;44.03;;
57561;SDS011;43397;51.530;5.974;2023-05-07T05:18:41;52.95;;;41.40;;
57561;SDS011;43397;51.530;5.974;2023-05-07T05:21:08;49.55;;;42.08;;
57561;SDS011;43397;51.530;5.974;2023-05-07T05:23:34;49.85;;;40.85;;
57561;SDS011;43397;51.530;5.974;2023-05-07T05:26:00;52.42;;;40.45;;
57561;SDS011;43397;51.530;5.974;2023-05-07T05:28:25;45.25;;;39.85;;
57561;SDS011;43397;51.530;5.974;2023-05-07T05:30:51;45.83;;;37.55;;
57561;SDS011;43397;51.530;5.974;2023-05-07T05:33:17;48.22;;;38.20;;
57561;SDS011;43397;51.530;5.974;2023-05-07T05:35:43;43.78;;;37.67;;
57561;SDS011;43397;51.530;5.974;2023-05-07T05:38:10;47.97;;;37.70;;
57561;SDS011;43397;51.530;5.974;2023-05-07T05:40:35;44.83;;;37.30;;
57561;SDS011;43397;51.530;5.974;2023-05-07T05:43:01;42.38;;;35.47;;
57561;SDS011;43397;51.530;5.974;2023-05-07T05:45:27;42.88;;;35.70;;
57561;SDS011;43397;51.530;5.974;2023-05-07T05:47:52;42.88;;;36.47;;
57561;SDS011;43397;51.530;5.974;2023-05-07T05:50:18;39.33;;;33.75;;
57561;SDS011;43397;51.530;5.974;2023-05-07T05:52:44;39.80;;;32.97;;
57561;SDS011;43397;51.530;5.974;2023-05-07T05:55:11;40.25;;;33.00;;
57561;SDS011;43397;51.530;5.974;2023-05-07T05:57:36;35.22;;;31.38;;
57561;SDS011;43397;51.530;5.974;2023-05-07T06:00:02;34.20;;;30.38;;
57561;SDS011;43397;51.530;5.974;2023-05-07T06:02:29;35.67;;;31.88;;
57561;SDS011;43397;51.530;5.974;2023-05-07T06:04:54;32.28;;;28.80;;
57561;SDS011;43397;51.530;5.974;2023-05-07T06:07:20;36.45;;;31.65;;
57561;SDS011;43397;51.530;5.974;2023-05-07T06:09:46;34.40;;;29.90;;
57561;SDS011;43397;51.530;5.974;2023-05-07T06:12:13;33.22;;;29.30;;
57561;SDS011;43397;51.530;5.974;2023-05-07T06:14:38;35.17;;;28.08;;
57561;SDS011;43397;51.530;5.974;2023-05-07T06:17:04;35.03;;;28.98;;
57561;SDS011;43397;51.530;5.974;2023-05-07T06:19:29;29.42;;;26.23;;
57561;SDS011;43397;51.530;5.974;2023-05-07T06:21:55;34.45;;;28.35;;
57561;SDS011;43397;51.530;5.974;2023-05-07T06:24:21;32.20;;;27.00;;
57561;SDS011;43397;51.530;5.974;2023-05-07T06:26:47;30.02;;;26.65;;
57561;SDS011;43397;51.530;5.974;2023-05-07T06:29:14;28.50;;;25.40;;
57561;SDS011;43397;51.530;5.974;2023-05-07T06:31:39;28.55;;;25.35;;
57561;SDS011;43397;51.530;5.974;2023-05-07T06:34:05;27.83;;;24.35;;
57561;SDS011;43397;51.530;5.974;2023-05-07T06:36:31;26.13;;;23.48;;
57561;SDS011;43397;51.530;5.974;2023-05-07T06:38:56;24.63;;;21.52;;
57561;SDS011;43397;51.530;5.974;2023-05-07T06:41:22;27.20;;;22.80;;
57561;SDS011;43397;51.530;5.974;2023-05-07T06:43:48;26.27;;;21.90;;
57561;SDS011;43397;51.530;5.974;2023-05-07T06:46:15;28.17;;;24.25;;
57561;SDS011;43397;51.530;5.974;2023-05-07T06:48:41;26.13;;;21.95;;
57561;SDS011;43397;51.530;5.974;2023-05-07T06:51:07;21.98;;;19.20;;
57561;SDS011;43397;51.530;5.974;2023-05-07T06:53:32;22.63;;;19.52;;
57561;SDS011;43397;51.530;5.974;2023-05-07T06:55:58;23.42;;;18.77;;
57561;SDS011;43397;51.530;5.974;2023-05-07T06:58:24;20.92;;;17.48;;
57561;SDS011;43397;51.530;5.974;2023-05-07T07:00:49;20.55;;;17.80;;
57561;SDS011;43397;51.530;5.974;2023-05-07T07:03:16;21.20;;;18.45;;
57561;SDS011;43397;51.530;5.974;2023-05-07T07:05:42;19.67;;;17.55;;
57561;SDS011;43397;51.530;5.974;2023-05-07T07:08:08;19.48;;;17.35;;
57561;SDS011;43397;51.530;5.974;2023-05-07T07:10:33;22.00;;;18.35;;
57561;SDS011;43397;51.530;5.974;2023-05-07T07:12:59;21.02;;;18.75;;
57561;SDS011;43397;51.530;5.974;2023-05-07T07:15:25;21.17;;;18.92;;
57561;SDS011;43397;51.530;5.974;2023-05-07T07:17:51;20.85;;;16.88;;
57561;SDS011;43397;51.530;5.974;2023-05-07T07:20:18;19.95;;;16.48;;
57561;SDS011;43397;51.530;5.974;2023-05-07T07:22:44;19.55;;;16.77;;
57561;SDS011;43397;51.530;5.974;2023-05-07T07:25:09;22.30;;;17.13;;
57561;SDS011;43397;51.530;5.974;2023-05-07T07:27:35;19.23;;;17.13;;
57561;SDS011;43397;51.530;5.974;2023-05-07T07:30:01;20.30;;;17.42;;
57561;SDS011;43397;51.530;5.974;2023-05-07T07:32:27;21.85;;;17.05;;
57561;SDS011;43397;51.530;5.974;2023-05-07T07:34:52;21.25;;;18.00;;
57561;SDS011;43397;51.530;5.974;2023-05-07T07:37:19;19.48;;;17.02;;
57561;SDS011;43397;51.530;5.974;2023-05-07T07:39:45;21.05;;;17.20;;
57561;SDS011;43397;51.530;5.974;2023-05-07T07:42:11;19.13;;;17.13;;
57561;SDS011;43397;51.530;5.974;2023-05-07T07:44:36;19.90;;;17.23;;
57561;SDS011;43397;51.530;5.974;2023-05-07T07:47:02;19.13;;;15.70;;
57561;SDS011;43397;51.530;5.974;2023-05-07T07:49:27;19.90;;;15.90;;
57561;SDS011;43397;51.530;5.974;2023-05-07T07:51:53;18.05;;;16.17;;
57561;SDS011;43397;51.530;5.974;2023-05-07T07:54:20;18.60;;;16.45;;
57561;SDS011;43397;51.530;5.974;2023-05-07T07:56:46;19.92;;;16.80;;
57561;SDS011;43397;51.530;5.974;2023-05-07T07:59:11;20.13;;;16.48;;
57561;SDS011;43397;51.530;5.974;2023-05-07T08:01:37;17.52;;;15.27;;
57561;SDS011;43397;51.530;5.974;2023-05-07T08:04:03;18.50;;;15.65;;
57561;SDS011;43397;51.530;5.974;2023-05-07T08:06:29;16.67;;;14.95;;
57561;SDS011;43397;51.530;5.974;2023-05-07T08:08:54;15.32;;;13.73;;
57561;SDS011;43397;51.530;5.974;2023-05-07T08:11:22;16.55;;;14.77;;
57561;SDS011;43397;51.530;5.974;2023-05-07T08:13:47;16.05;;;14.48;;
57561;SDS011;43397;51.530;5.974;2023-05-07T08:16:13;18.27;;;14.95;;
57561;SDS011;43397;51.530;5.974;2023-05-07T08:18:39;15.77;;;13.82;;
57561;SDS011;43397;51.530;5.974;2023-05-07T08:21:04;16.58;;;14.38;;
57561;SDS011;43397;51.530;5.974;2023-05-07T08:23:30;16.90;;;14.13;;
57561;SDS011;43397;51.530;5.974;2023-05-07T08:25:56;15.48;;;13.77;;
57561;SDS011;43397;51.530;5.974;2023-05-07T08:28:23;13.18;;;11.15;;
57561;SDS011;43397;51.530;5.974;2023-05-07T08:30:49;15.35;;;12.07;;
57561;SDS011;43397;51.530;5.974;2023-05-07T08:33:14;13.15;;;10.52;;
57561;SDS011;43397;51.530;5.974;2023-05-07T08:35:40;13.98;;;11.60;;
57561;SDS011;43397;51.530;5.974;2023-05-07T08:38:06;13.20;;;11.77;;
57561;SDS011;43397;51.530;5.974;2023-05-07T08:40:32;14.82;;;11.00;;
57561;SDS011;43397;51.530;5.974;2023-05-07T08:43:02;12.63;;;10.80;;
57561;SDS011;43397;51.530;5.974;2023-05-07T08:45:31;14.48;;;12.48;;
57561;SDS011;43397;51.530;5.974;2023-05-07T08:47:58;12.25;;;10.73;;
57561;SDS011;43397;51.530;5.974;2023-05-07T08:50:26;12.75;;;10.48;;
57561;SDS011;43397;51.530;5.974;2023-05-07T08:52:52;11.93;;;10.65;;
57561;SDS011;43397;51.530;5.974;2023-05-07T08:55:18;14.60;;;10.65;;
57561;SDS011;43397;51.530;5.974;2023-05-07T08:57:45;12.98;;;10.10;;
57561;SDS011;43397;51.530;5.974;2023-05-07T09:00:11;11.50;;;9.15;;
57561;SDS011;43397;51.530;5.974;2023-05-07T09:02:39;12.55;;;9.20;;
57561;SDS011;43397;51.530;5.974;2023-05-07T09:05:05;11.73;;;9.60;;
57561;SDS011;43397;51.530;5.974;2023-05-07T09:07:32;14.88;;;10.50;;
57561;SDS011;43397;51.530;5.974;2023-05-07T09:09:58;12.20;;;9.88;;
57561;SDS011;43397;51.530;5.974;2023-05-07T09:12:23;11.93;;;8.88;;
57561;SDS011;43397;51.530;5.974;2023-05-07T09:14:49;10.27;;;7.70;;
57561;SDS011;43397;51.530;5.974;2023-05-07T09:17:15;10.02;;;7.75;;
57561;SDS011;43397;51.530;5.974;2023-05-07T09:19:42;9.60;;;7.65;;
57561;SDS011;43397;51.530;5.974;2023-05-07T09:22:08;10.02;;;7.82;;
57561;SDS011;43397;51.530;5.974;2023-05-07T09:24:34;10.45;;;7.93;;
57561;SDS011;43397;51.530;5.974;2023-05-07T09:27:00;9.98;;;8.20;;
57561;SDS011;43397;51.530;5.974;2023-05-07T09:29:26;10.07;;;8.05;;
57561;SDS011;43397;51.530;5.974;2023-05-07T09:31:52;9.55;;;7.88;;
57561;SDS011;43397;51.530;5.974;2023-05-07T09:34:17;11.00;;;6.30;;
57561;SDS011;43397;51.530;5.974;2023-05-07T09:36:44;8.10;;;7.00;;
57561;SDS011;43397;51.530;5.974;2023-05-07T09:39:10;10.73;;;7.05;;
57561;SDS011;43397;51.530;5.974;2023-05-07T09:41:43;10.05;;;7.47;;
57561;SDS011;43397;51.530;5.974;2023-05-07T09:44:09;8.10;;;6.60;;
57561;SDS011;43397;51.530;5.974;2023-05-07T09:46:34;9.90;;;6.15;;
57561;SDS011;43397;51.530;5.974;2023-05-07T09:49:02;9.75;;;6.97;;
57561;SDS011;43397;51.530;5.974;2023-05-07T09:51:29;10.15;;;6.50;;
57561;SDS011;43397;51.530;5.974;2023-05-07T09:53:57;8.35;;;6.93;;
57561;SDS011;43397;51.530;5.974;2023-05-07T09:56:23;8.75;;;6.25;;
57561;SDS011;43397;51.530;5.974;2023-05-07T09:58:50;7.93;;;5.30;;
57561;SDS011;43397;51.530;5.974;2023-05-07T10:01:19;8.25;;;5.90;;
57561;SDS011;43397;51.530;5.974;2023-05-07T10:03:45;7.40;;;5.63;;
57561;SDS011;43397;51.530;5.974;2023-05-07T10:06:12;10.60;;;7.00;;
57561;SDS011;43397;51.530;5.974;2023-05-07T10:08:38;8.65;;;5.53;;
57561;SDS011;43397;51.530;5.974;2023-05-07T10:11:06;9.68;;;6.25;;
57561;SDS011;43397;51.530;5.974;2023-05-07T10:13:32;9.63;;;6.72;;
57561;SDS011;43397;51.530;5.974;2023-05-07T10:15:58;10.05;;;7.43;;
57561;SDS011;43397;51.530;5.974;2023-05-07T10:18:25;8.93;;;6.28;;
57561;SDS011;43397;51.530;5.974;2023-05-07T10:20:52;7.47;;;6.05;;
57561;SDS011;43397;51.530;5.974;2023-05-07T10:23:21;7.25;;;5.90;;
57561;SDS011;43397;51.530;5.974;2023-05-07T10:25:49;9.57;;;7.35;;
57561;SDS011;43397;51.530;5.974;2023-05-07T10:28:16;9.77;;;6.55;;
57561;SDS011;43397;51.530;5.974;2023-05-07T10:30:48;8.10;;;6.05;;
57561;SDS011;43397;51.530;5.974;2023-05-07T10:33:22;9.25;;;6.88;;
57561;SDS011;43397;51.530;5.974;2023-05-07T10:35:51;9.93;;;6.45;;
57561;SDS011;43397;51.530;5.974;2023-05-07T10:38:22;8.63;;;6.22;;
57561;SDS011;43397;51.530;5.974;2023-05-07T10:40:48;10.57;;;6.32;;
57561;SDS011;43397;51.530;5.974;2023-05-07T10:43:17;11.73;;;6.53;;
57561;SDS011;43397;51.530;5.974;2023-05-07T10:45:43;8.85;;;6.75;;
57561;SDS011;43397;51.530;5.974;2023-05-07T10:48:09;7.63;;;5.75;;
57561;SDS011;43397;51.530;5.974;2023-05-07T10:50:36;10.82;;;5.68;;
57561;SDS011;43397;51.530;5.974;2023-05-07T10:53:20;9.90;;;6.10;;
57561;SDS011;43397;51.530;5.974;2023-05-07T10:55:46;10.13;;;5.80;;
57561;SDS011;43397;51.530;5.974;2023-05-07T10:58:24;10.27;;;6.32;;
57561;SDS011;43397;51.530;5.974;2023-05-07T11:00:55;8.50;;;4.97;;
57561;SDS011;43397;51.530;5.974;2023-05-07T11:03:22;8.68;;;5.55;;
57561;SDS011;43397;51.530;5.974;2023-05-07T11:05:47;9.18;;;4.85;;
57561;SDS011;43397;51.530;5.974;2023-05-07T11:11:18;7.97;;;4.63;;
57561;SDS011;43397;51.530;5.974;2023-05-07T11:13:45;9.68;;;5.18;;
57561;SDS011;43397;51.530;5.974;2023-05-07T11:16:16;9.43;;;5.38;;
57561;SDS011;43397;51.530;5.974;2023-05-07T11:18:46;9.63;;;4.90;;
57561;SDS011;43397;51.530;5.974;2023-05-07T11:21:12;11.40;;;5.03;;
57561;SDS011;43397;51.530;5.974;2023-05-07T11:23:56;9.40;;;4.60;;
57561;SDS011;43397;51.530;5.974;2023-05-07T11:26:26;7.10;;;4.55;;
57561;SDS011;43397;51.530;5.974;2023-05-07T11:28:54;7.75;;;4.35;;
57561;SDS011;43397;51.530;5.974;2023-05-07T11:31:20;8.55;;;4.63;;
57561;SDS011;43397;51.530;5.974;2023-05-07T11:33:47;7.63;;;4.20;;
57561;SDS011;43397;51.530;5.974;2023-05-07T11:36:13;7.32;;;4.45;;
57561;SDS011;43397;51.530;5.974;2023-05-07T11:38:39;6.20;;;3.65;;
57561;SDS011;43397;51.530;5.974;2023-05-07T11:41:05;8.30;;;3.53;;
57561;SDS011;43397;51.530;5.974;2023-05-07T11:43:31;8.15;;;4.75;;
57561;SDS011;43397;51.530;5.974;2023-05-07T11:46:04;8.13;;;4.10;;
57561;SDS011;43397;51.530;5.974;2023-05-07T11:48:31;7.18;;;3.90;;
57561;SDS011;43397;51.530;5.974;2023-05-07T11:50:59;7.03;;;4.32;;
57561;SDS011;43397;51.530;5.974;2023-05-07T11:53:27;7.07;;;3.47;;
57561;SDS011;43397;51.530;5.974;2023-05-07T11:55:53;7.32;;;4.28;;
57561;SDS011;43397;51.530;5.974;2023-05-07T11:58:21;7.97;;;3.60;;
57561;SDS011;43397;51.530;5.974;2023-05-07T12:00:48;6.70;;;3.53;;
57561;SDS011;43397;51.530;5.974;2023-05-07T12:03:15;7.63;;;3.60;;
57561;SDS011;43397;51.530;5.974;2023-05-07T12:05:41;7.55;;;4.32;;
57561;SDS011;43397;51.530;5.974;2023-05-07T12:08:07;6.63;;;4.15;;
57561;SDS011;43397;51.530;5.974;2023-05-07T12:10:32;7.47;;;4.53;;
57561;SDS011;43397;51.530;5.974;2023-05-07T12:12:58;6.40;;;3.78;;
57561;SDS011;43397;51.530;5.974;2023-05-07T12:15:24;9.13;;;4.35;;
57561;SDS011;43397;51.530;5.974;2023-05-07T12:17:50;8.70;;;4.55;;
57561;SDS011;43397;51.530;5.974;2023-05-07T12:20:17;7.35;;;4.55;;
57561;SDS011;43397;51.530;5.974;2023-05-07T12:22:43;7.32;;;4.68;;
57561;SDS011;43397;51.530;5.974;2023-05-07T12:25:09;9.50;;;5.00;;
57561;SDS011;43397;51.530;5.974;2023-05-07T12:27:36;8.95;;;4.55;;
57561;SDS011;43397;51.530;5.974;2023-05-07T12:30:02;6.70;;;4.20;;
57561;SDS011;43397;51.530;5.974;2023-05-07T12:32:28;8.30;;;3.67;;
57561;SDS011;43397;51.530;5.974;2023-05-07T12:34:54;6.32;;;3.08;;
57561;SDS011;43397;51.530;5.974;2023-05-07T12:37:24;6.00;;;3.03;;
57561;SDS011;43397;51.530;5.974;2023-05-07T12:40:03;6.03;;;2.92;;
57561;SDS011;43397;51.530;5.974;2023-05-07T12:44:57;5.70;;;2.57;;
57561;SDS011;43397;51.530;5.974;2023-05-07T12:47:23;5.90;;;2.88;;
57561;SDS011;43397;51.530;5.974;2023-05-07T12:49:49;8.52;;;3.10;;
57561;SDS011;43397;51.530;5.974;2023-05-07T12:52:14;6.07;;;3.28;;
57561;SDS011;43397;51.530;5.974;2023-05-07T12:54:41;7.03;;;3.50;;
57561;SDS011;43397;51.530;5.974;2023-05-07T12:57:09;6.32;;;3.55;;
57561;SDS011;43397;51.530;5.974;2023-05-07T12:59:36;7.80;;;4.15;;
57561;SDS011;43397;51.530;5.974;2023-05-07T13:02:02;10.00;;;3.85;;
57561;SDS011;43397;51.530;5.974;2023-05-07T13:04:28;6.88;;;3.63;;
57561;SDS011;43397;51.530;5.974;2023-05-07T13:06:54;9.60;;;3.95;;
57561;SDS011;43397;51.530;5.974;2023-05-07T13:09:19;6.72;;;3.97;;
57561;SDS011;43397;51.530;5.974;2023-05-07T13:11:46;6.43;;;3.70;;
57561;SDS011;43397;51.530;5.974;2023-05-07T13:14:12;6.47;;;3.65;;
57561;SDS011;43397;51.530;5.974;2023-05-07T13:16:38;8.82;;;3.75;;
57561;SDS011;43397;51.530;5.974;2023-05-07T13:19:03;7.03;;;3.42;;
57561;SDS011;43397;51.530;5.974;2023-05-07T13:21:29;6.65;;;3.80;;
57561;SDS011;43397;51.530;5.974;2023-05-07T13:23:55;7.95;;;3.90;;
57561;SDS011;43397;51.530;5.974;2023-05-07T13:26:20;7.38;;;3.70;;
57561;SDS011;43397;51.530;5.974;2023-05-07T13:28:47;6.45;;;3.78;;
57561;SDS011;43397;51.530;5.974;2023-05-07T13:31:13;5.85;;;3.60;;
57561;SDS011;43397;51.530;5.974;2023-05-07T13:33:39;6.88;;;3.50;;
57561;SDS011;43397;51.530;5.974;2023-05-07T13:36:05;6.60;;;4.03;;
57561;SDS011;43397;51.530;5.974;2023-05-07T13:38:31;7.63;;;3.70;;
57561;SDS011;43397;51.530;5.974;2023-05-07T13:40:56;6.82;;;3.72;;
57561;SDS011;43397;51.530;5.974;2023-05-07T13:43:22;7.72;;;3.40;;
57561;SDS011;43397;51.530;5.974;2023-05-07T13:45:49;6.75;;;3.85;;
57561;SDS011;43397;51.530;5.974;2023-05-07T13:48:14;7.80;;;3.83;;
57561;SDS011;43397;51.530;5.974;2023-05-07T13:50:40;6.55;;;3.78;;
57561;SDS011;43397;51.530;5.974;2023-05-07T13:53:07;6.53;;;3.65;;
57561;SDS011;43397;51.530;5.974;2023-05-07T13:55:33;11.57;;;3.80;;
57561;SDS011;43397;51.530;5.974;2023-05-07T13:57:59;5.22;;;3.58;;
57561;SDS011;43397;51.530;5.974;2023-05-07T14:00:26;6.53;;;3.35;;
57561;SDS011;43397;51.530;5.974;2023-05-07T14:02:54;6.18;;;2.80;;
57561;SDS011;43397;51.530;5.974;2023-05-07T14:05:20;5.60;;;3.60;;
57561;SDS011;43397;51.530;5.974;2023-05-07T14:07:45;7.55;;;4.05;;
57561;SDS011;43397;51.530;5.974;2023-05-07T14:10:11;9.70;;;5.07;;
57561;SDS011;43397;51.530;5.974;2023-05-07T14:12:37;8.98;;;4.65;;
57561;SDS011;43397;51.530;5.974;2023-05-07T14:15:02;0.10;;;0.10;;
57561;SDS011;43397;51.530;5.974;2023-05-07T14:17:28;0.00;;;0.00;;
57561;SDS011;43397;51.530;5.974;2023-05-07T14:19:56;0.20;;;0.20;;
57561;SDS011;43397;51.530;5.974;2023-05-07T14:22:22;0.22;;;0.22;;
57561;SDS011;43397;51.530;5.974;2023-05-07T14:24:48;0.20;;;0.20;;
57561;SDS011;43397;51.530;5.974;2023-05-07T14:27:14;1.55;;;0.35;;
57561;SDS011;43397;51.530;5.974;2023-05-07T14:29:40;0.20;;;0.20;;
57561;SDS011;43397;51.530;5.974;2023-05-07T14:32:06;0.10;;;0.10;;